Time;durP1;ratioP1;P1;durP2;ratioP2;P2;SDS_P1;SDS_P2;PMS_P1;PMS_P2;Temp;Humidity;BMP_temperature;BMP_pressure;BME280_temperature;BME280_humidity;BME280_pressure;Samples;Min_cycle;Max_cycle;Signal;HPM_P1;HPM_P2
2021/06/04 00:00:33;;;;;;;1.20;0.93;;;14.00;99.90;;;;;;5059734;28;20405;-84
2021/06/04 00:03:04;;;;;;;1.90;1.08;;;14.00;99.90;;;;;;5062037;28;20393;-86
2021/06/04 00:05:35;;;;;;;1.95;1.02;;;14.00;99.90;;;;;;5059608;28;20387;-85
2021/06/04 00:08:03;;;;;;;1.10;1.00;;;14.10;99.90;;;;;;5059703;28;20501;-86
2021/06/04 00:10:35;;;;;;;2.75;1.27;;;14.10;99.90;;;;;;5062663;28;20472;-83
2021/06/04 00:13:34;;;;;;;1.60;1.10;;;14.10;99.90;;;;;;5062032;28;20429;-84
2021/06/04 00:16:13;;;;;;;3.13;1.17;;;14.10;99.90;;;;;;5053293;28;20396;-85
2021/06/04 00:18:41;;;;;;;1.73;1.10;;;14.40;99.90;;;;;;5059822;28;20398;-85
2021/06/04 00:21:16;;;;;;;2.20;1.40;;;14.50;99.90;;;;;;5060006;28;20396;-87
2021/06/04 00:23:43;;;;;;;2.20;1.30;;;14.80;99.90;;;;;;5059781;28;20402;-85
2021/06/04 00:26:11;;;;;;;1.95;1.17;;;15.00;99.90;;;;;;5057272;28;20400;-85
2021/06/04 00:28:38;;;;;;;3.30;1.20;;;15.00;99.90;;;;;;5062411;28;20516;-88
2021/06/04 00:31:06;;;;;;;1.90;1.10;;;14.90;99.90;;;;;;5056616;28;20484;-87
2021/06/04 00:33:33;;;;;;;2.42;1.45;;;14.90;99.90;;;;;;5058679;28;20463;-85
2021/06/04 00:36:02;;;;;;;1.40;1.30;;;14.80;99.90;;;;;;5061624;28;20756;-85
2021/06/04 00:38:29;;;;;;;2.78;1.40;;;14.70;99.90;;;;;;5063095;28;20877;-85
2021/06/04 00:41:01;;;;;;;3.60;1.42;;;14.70;99.90;;;;;;5060531;28;20926;-87
2021/06/04 00:43:28;;;;;;;3.78;1.33;;;14.70;99.90;;;;;;5060070;28;20395;-85
2021/06/04 00:45:57;;;;;;;2.45;1.50;;;14.80;99.90;;;;;;5061966;28;20398;-84
2021/06/04 00:48:27;;;;;;;1.90;1.30;;;14.80;99.90;;;;;;5062074;28;20971;-85
2021/06/04 00:51:07;;;;;;;2.83;1.40;;;14.80;99.90;;;;;;5053841;28;20928;-85
2021/06/04 00:53:36;;;;;;;2.03;0.98;;;14.90;99.90;;;;;;5061677;28;20395;-84
2021/06/04 00:56:04;;;;;;;2.20;1.30;;;14.90;99.90;;;;;;5063392;28;20393;-85
2021/06/04 00:58:38;;;;;;;1.95;1.30;;;15.10;99.90;;;;;;5067623;28;20402;-86
2021/06/04 01:01:07;;;;;;;2.20;1.10;;;15.10;99.90;;;;;;5067136;28;20393;-86
2021/06/04 01:03:39;;;;;;;3.25;1.52;;;15.10;99.90;;;;;;5067475;28;20393;-85
2021/06/04 01:06:16;;;;;;;2.70;1.30;;;15.20;99.90;;;;;;5069128;28;20385;-84
2021/06/04 01:08:59;;;;;;;4.05;1.27;;;15.20;99.90;;;;;;5054792;28;20398;-84
2021/06/04 01:11:45;;;;;;;2.55;0.95;;;15.40;99.90;;;;;;5053497;28;20955;-84
2021/06/04 01:14:19;;;;;;;2.47;1.30;;;15.40;99.90;;;;;;5064594;28;20393;-83
2021/06/04 01:17:00;;;;;;;3.30;1.27;;;15.50;99.90;;;;;;5066996;28;20900;-83
2021/06/04 01:19:46;;;;;;;1.27;1.00;;;15.70;99.90;;;;;;5061940;28;20734;-85
2021/06/04 01:22:29;;;;;;;1.35;1.10;;;15.70;99.90;;;;;;5064486;28;20448;-84
2021/06/04 01:25:22;;;;;;;3.55;0.90;;;15.70;99.90;;;;;;5068955;28;20394;-86
2021/06/04 01:27:51;;;;;;;1.50;1.03;;;15.90;99.90;;;;;;5054353;28;20447;-85
2021/06/04 01:30:44;;;;;;;3.95;1.38;;;15.90;99.90;;;;;;5066079;28;20445;-86
2021/06/04 01:33:20;;;;;;;1.90;0.90;;;15.90;99.90;;;;;;5067566;28;20410;-87
2021/06/04 01:35:55;;;;;;;2.45;1.13;;;16.00;99.90;;;;;;5066020;28;20755;-85
2021/06/04 01:38:34;;;;;;;1.65;0.90;;;16.00;99.90;;;;;;5060344;28;20377;-87
2021/06/04 01:41:06;;;;;;;1.27;0.90;;;16.00;99.90;;;;;;5067287;28;20394;-86
2021/06/04 01:43:46;;;;;;;2.05;0.85;;;16.10;99.90;;;;;;5065706;28;20797;-85
2021/06/04 01:46:29;;;;;;;1.90;0.90;;;16.20;99.90;;;;;;5062957;28;20400;-87
2021/06/04 01:49:01;;;;;;;1.25;0.70;;;16.20;99.90;;;;;;5058704;28;20449;-85
2021/06/04 01:51:37;;;;;;;1.50;0.60;;;16.20;99.90;;;;;;5064584;28;21364;-85
2021/06/04 01:54:28;;;;;;;1.13;0.70;;;16.30;99.90;;;;;;5057796;28;20403;-84
2021/06/04 01:56:59;;;;;;;2.42;0.50;;;16.50;99.90;;;;;;5055670;28;20497;-86
2021/06/04 01:59:43;;;;;;;0.40;0.40;;;16.60;99.90;;;;;;5053420;28;20383;-84
2021/06/04 02:02:11;;;;;;;0.88;0.30;;;16.70;99.90;;;;;;5067412;28;20398;-87
2021/06/04 02:04:50;;;;;;;1.30;0.40;;;16.80;99.90;;;;;;5064809;28;20448;-86
2021/06/04 02:07:22;;;;;;;1.90;0.40;;;16.90;99.90;;;;;;5066430;28;20411;-85
2021/06/04 02:09:49;;;;;;;1.13;0.47;;;16.90;99.90;;;;;;5059924;28;20411;-84
2021/06/04 02:12:17;;;;;;;1.02;0.30;;;16.90;99.90;;;;;;5058563;28;20406;-84
2021/06/04 02:14:51;;;;;;;0.30;0.30;;;16.90;99.90;;;;;;5061122;28;20753;-84
2021/06/04 02:17:37;;;;;;;0.40;0.40;;;17.10;99.90;;;;;;5068716;28;20390;-84
2021/06/04 02:20:22;;;;;;;0.50;0.38;;;17.20;99.90;;;;;;5054989;28;20391;-83
2021/06/04 02:23:16;;;;;;;0.30;0.30;;;17.40;99.90;;;;;;5059704;28;20406;-84
2021/06/04 02:26:25;;;;;;;1.90;0.30;;;17.40;99.90;;;;;;5063379;28;20889;-83
2021/06/04 02:29:09;;;;;;;0.52;0.20;;;17.40;99.90;;;;;;5067524;28;20408;-85
2021/06/04 02:32:08;;;;;;;0.65;0.40;;;17.40;99.90;;;;;;5060786;28;20937;-84
2021/06/04 02:34:48;;;;;;;0.90;0.45;;;17.40;99.90;;;;;;5051105;28;20460;-83
2021/06/04 02:37:20;;;;;;;1.05;0.30;;;17.40;99.90;;;;;;5066425;28;20437;-83
2021/06/04 02:40:12;;;;;;;0.40;0.30;;;17.50;99.90;;;;;;5066716;28;20395;-84
2021/06/04 02:42:51;;;;;;;1.83;0.50;;;17.50;99.90;;;;;;5059928;28;20400;-83
2021/06/04 02:45:38;;;;;;;0.52;0.52;;;17.50;99.90;;;;;;5057589;28;20401;-84
2021/06/04 02:48:13;;;;;;;0.50;0.40;;;17.40;99.90;;;;;;5063096;28;20378;-83
2021/06/04 02:50:44;;;;;;;1.33;0.40;;;17.30;99.90;;;;;;5061732;28;20398;-84
2021/06/04 02:53:20;;;;;;;4.20;0.60;;;17.20;99.90;;;;;;5070977;28;20729;-82
2021/06/04 02:56:25;;;;;;;1.60;0.60;;;17.20;99.90;;;;;;5053848;28;20473;-82
2021/06/04 02:59:14;;;;;;;1.38;0.50;;;17.20;99.90;;;;;;5060669;28;20943;-82
2021/06/04 03:01:49;;;;;;;0.50;0.50;;;17.30;99.90;;;;;;5069576;28;20390;-83
2021/06/04 03:04:16;;;;;;;0.93;0.40;;;17.30;99.90;;;;;;5066238;28;20404;-83
2021/06/04 03:06:51;;;;;;;0.57;0.40;;;17.30;99.90;;;;;;5061581;28;20447;-83
2021/06/04 03:09:21;;;;;;;1.02;0.60;;;17.30;99.90;;;;;;5066333;28;20386;-82
2021/06/04 03:11:50;;;;;;;0.77;0.50;;;17.20;99.90;;;;;;5066852;28;20422;-84
2021/06/04 03:14:19;;;;;;;0.85;0.80;;;17.20;99.90;;;;;;5068628;28;20382;-83
2021/06/04 03:16:47;;;;;;;1.05;0.70;;;17.20;99.10;;;;;;5070480;28;20403;-82
2021/06/04 03:19:16;;;;;;;1.02;0.80;;;17.10;99.90;;;;;;5070001;28;20402;-83
2021/06/04 03:21:48;;;;;;;2.88;0.60;;;17.20;99.90;;;;;;5063489;28;20402;-82
2021/06/04 03:24:19;;;;;;;3.28;0.70;;;17.10;99.90;;;;;;5067688;28;20386;-84
2021/06/04 03:26:46;;;;;;;1.30;0.70;;;17.10;99.90;;;;;;5065475;28;20468;-83
2021/06/04 03:29:16;;;;;;;3.20;0.50;;;17.10;99.90;;;;;;5059023;28;20399;-82
2021/06/04 03:31:46;;;;;;;0.52;0.43;;;17.00;99.90;;;;;;5051134;28;20396;-84
2021/06/04 03:34:14;;;;;;;1.55;0.55;;;16.90;99.90;;;;;;5057144;28;20734;-84
2021/06/04 03:36:47;;;;;;;0.55;0.43;;;16.80;99.90;;;;;;5056941;28;20446;-83
2021/06/04 03:39:22;;;;;;;0.80;0.50;;;16.70;99.90;;;;;;5050526;28;20380;-84
2021/06/04 03:41:52;;;;;;;1.20;0.40;;;16.60;99.90;;;;;;5069151;28;20393;-83
2021/06/04 03:44:22;;;;;;;0.90;0.45;;;16.60;99.90;;;;;;5064601;28;20512;-82
2021/06/04 03:46:49;;;;;;;0.68;0.40;;;16.50;99.90;;;;;;5065872;28;20394;-84
2021/06/04 03:49:18;;;;;;;3.10;0.50;;;16.40;99.90;;;;;;5057202;28;20400;-84
2021/06/04 03:51:48;;;;;;;0.57;0.45;;;16.40;99.90;;;;;;5066828;28;20424;-83
2021/06/04 03:54:21;;;;;;;1.27;0.60;;;16.40;99.90;;;;;;5068055;28;20382;-83
2021/06/04 03:56:48;;;;;;;0.47;0.40;;;16.40;99.90;;;;;;5066010;28;20394;-82
2021/06/04 03:59:16;;;;;;;0.55;0.40;;;16.40;99.90;;;;;;5067903;28;20394;-83
2021/06/04 04:02:14;;;;;;;1.50;0.65;;;16.40;99.90;;;;;;5064002;28;20398;-83
2021/06/04 04:04:42;;;;;;;0.60;0.60;;;16.30;99.90;;;;;;5051591;28;20815;-83
2021/06/04 04:07:11;;;;;;;0.70;0.50;;;16.30;99.90;;;;;;5055648;28;20406;-83
2021/06/04 04:09:39;;;;;;;1.20;0.60;;;16.20;99.90;;;;;;5055720;28;20401;-83
2021/06/04 04:12:06;;;;;;;1.80;0.77;;;16.20;99.90;;;;;;5068002;28;20431;-84
2021/06/04 04:14:34;;;;;;;1.20;0.40;;;16.20;99.90;;;;;;5072254;28;20427;-83
2021/06/04 04:17:02;;;;;;;0.80;0.60;;;16.10;99.90;;;;;;5069972;28;20453;-84
2021/06/04 04:19:29;;;;;;;0.73;0.52;;;16.10;99.90;;;;;;5068361;28;20858;-84
2021/06/04 04:21:57;;;;;;;2.10;0.70;;;16.10;99.90;;;;;;5068955;28;20762;-84
2021/06/04 04:24:30;;;;;;;1.90;0.60;;;16.00;99.90;;;;;;5066196;28;20374;-83
2021/06/04 04:26:58;;;;;;;2.53;0.57;;;16.00;99.90;;;;;;5057245;28;20465;-82
2021/06/04 04:29:26;;;;;;;0.60;0.52;;;15.90;99.90;;;;;;5060349;28;20394;-84
2021/06/04 04:31:57;;;;;;;1.60;0.63;;;15.90;99.90;;;;;;5060641;28;20886;-84
2021/06/04 04:34:25;;;;;;;1.57;0.63;;;16.00;99.90;;;;;;5057375;28;20847;-83
2021/06/04 04:36:58;;;;;;;1.38;0.77;;;15.90;99.90;;;;;;5052779;28;20824;-82
2021/06/04 04:39:28;;;;;;;1.70;0.75;;;15.90;99.90;;;;;;5058274;28;20489;-82
2021/06/04 04:41:55;;;;;;;1.88;0.70;;;15.90;99.90;;;;;;5067773;28;20397;-83
2021/06/04 04:44:30;;;;;;;3.20;0.80;;;15.80;99.90;;;;;;5060425;28;20392;-82
2021/06/04 04:46:58;;;;;;;1.48;1.00;;;15.80;99.90;;;;;;5060109;28;21158;-83
2021/06/04 04:49:25;;;;;;;0.98;0.90;;;15.80;99.90;;;;;;5052229;28;20386;-83
2021/06/04 04:51:53;;;;;;;1.50;0.70;;;15.80;99.90;;;;;;5060708;28;20401;-83
2021/06/04 04:54:20;;;;;;;2.75;0.80;;;15.70;99.90;;;;;;5056429;28;20434;-84
2021/06/04 04:56:48;;;;;;;0.88;0.88;;;15.80;99.90;;;;;;5058486;28;20788;-84
2021/06/04 04:59:17;;;;;;;1.85;0.70;;;15.90;99.90;;;;;;5057410;28;20404;-83
2021/06/04 05:01:44;;;;;;;1.17;0.50;;;15.90;99.90;;;;;;5056477;28;20390;-83
2021/06/04 05:04:12;;;;;;;1.15;0.90;;;16.00;99.90;;;;;;5054926;28;20394;-84
2021/06/04 05:06:39;;;;;;;1.20;0.70;;;16.10;99.90;;;;;;5060213;28;20430;-83
2021/06/04 05:09:08;;;;;;;1.20;0.57;;;16.10;99.90;;;;;;5062275;28;20405;-83
2021/06/04 05:11:35;;;;;;;0.63;0.63;;;16.10;99.90;;;;;;5062679;28;20390;-84
2021/06/04 05:14:03;;;;;;;0.75;0.60;;;15.90;99.90;;;;;;5063727;28;20521;-83
2021/06/04 05:16:30;;;;;;;0.70;0.60;;;15.80;99.90;;;;;;5066807;28;20374;-83
2021/06/04 05:18:57;;;;;;;3.10;0.77;;;15.70;99.90;;;;;;5067759;28;20476;-84
2021/06/04 05:21:24;;;;;;;1.20;0.77;;;15.60;99.80;;;;;;5057481;28;20389;-83
2021/06/04 05:23:52;;;;;;;1.85;0.73;;;15.50;99.90;;;;;;5062190;28;20519;-84
2021/06/04 05:26:19;;;;;;;0.80;0.80;;;15.40;99.90;;;;;;5059834;28;20461;-82
2021/06/04 05:28:46;;;;;;;1.23;0.80;;;15.30;99.90;;;;;;5059559;28;20394;-83
2021/06/04 05:31:14;;;;;;;1.55;0.80;;;15.30;99.90;;;;;;5062812;28;20459;-83
2021/06/04 05:33:46;;;;;;;1.55;0.75;;;15.30;99.90;;;;;;5065122;28;20417;-83
2021/06/04 05:36:17;;;;;;;1.45;0.60;;;15.20;99.90;;;;;;5061756;28;20385;-83
2021/06/04 05:38:46;;;;;;;2.10;0.60;;;15.10;99.90;;;;;;5063533;28;20476;-83
2021/06/04 05:41:14;;;;;;;4.00;0.90;;;15.10;99.90;;;;;;5068707;28;20382;-82
2021/06/04 05:43:43;;;;;;;2.47;0.80;;;15.00;99.90;;;;;;5059948;28;20476;-83
2021/06/04 05:46:13;;;;;;;0.60;0.60;;;15.10;99.90;;;;;;5051660;28;20754;-83
2021/06/04 05:48:41;;;;;;;1.30;0.73;;;15.10;99.90;;;;;;5058580;28;20454;-83
2021/06/04 05:51:14;;;;;;;0.60;0.60;;;15.10;99.90;;;;;;5060475;28;20394;-83
2021/06/04 05:53:43;;;;;;;1.10;0.73;;;15.20;99.90;;;;;;5068342;28;20762;-84
2021/06/04 05:56:11;;;;;;;1.60;0.68;;;15.30;99.90;;;;;;5069520;28;20764;-84
2021/06/04 05:58:39;;;;;;;0.80;0.80;;;15.40;99.90;;;;;;5055212;28;21041;-84
2021/06/04 06:01:10;;;;;;;1.20;0.70;;;15.40;99.90;;;;;;5057115;28;20390;-84
2021/06/04 06:03:37;;;;;;;1.10;0.73;;;15.50;99.90;;;;;;5063237;28;20409;-83
2021/06/04 06:06:05;;;;;;;2.20;0.70;;;15.40;99.90;;;;;;5060705;28;20394;-83
2021/06/04 06:08:32;;;;;;;2.28;0.90;;;15.40;99.90;;;;;;5062674;28;20478;-82
2021/06/04 06:10:59;;;;;;;3.80;0.70;;;15.30;99.90;;;;;;5071415;28;20425;-83
2021/06/04 06:13:28;;;;;;;1.92;0.77;;;15.20;99.90;;;;;;5070391;28;20454;-83
2021/06/04 06:15:56;;;;;;;1.60;0.80;;;15.00;99.90;;;;;;5053675;28;20396;-82
2021/06/04 06:18:24;;;;;;;2.10;0.70;;;14.90;99.90;;;;;;5059660;28;20405;-82
2021/06/04 06:20:52;;;;;;;1.17;0.68;;;14.80;99.90;;;;;;5065260;28;20401;-81
2021/06/04 06:23:25;;;;;;;1.13;0.70;;;14.70;99.90;;;;;;5069428;28;20406;-82
2021/06/04 06:25:56;;;;;;;1.80;0.55;;;14.60;99.90;;;;;;5051634;28;20445;-81
2021/06/04 06:28:27;;;;;;;0.90;0.60;;;14.40;99.90;;;;;;5051429;28;20840;-82
2021/06/04 06:30:55;;;;;;;1.63;0.77;;;14.30;99.90;;;;;;5067416;28;20393;-82
2021/06/04 06:33:23;;;;;;;0.77;0.70;;;14.20;99.90;;;;;;5055947;28;20414;-81
2021/06/04 06:35:54;;;;;;;2.15;0.80;;;14.10;99.90;;;;;;5053714;28;20464;-82
2021/06/04 06:38:22;;;;;;;0.70;0.70;;;14.00;99.90;;;;;;5051139;28;20394;-82
2021/06/04 06:40:50;;;;;;;0.80;0.80;;;13.90;99.90;;;;;;5070259;28;20378;-82
2021/06/04 06:43:17;;;;;;;0.60;0.60;;;13.80;99.90;;;;;;5071400;28;20418;-83
2021/06/04 06:45:44;;;;;;;1.02;0.80;;;13.70;99.90;;;;;;5062437;28;20380;-81
2021/06/04 06:48:12;;;;;;;1.00;0.70;;;13.60;99.90;;;;;;5059841;28;20382;-81
2021/06/04 06:50:41;;;;;;;1.52;0.63;;;13.50;99.90;;;;;;5071137;28;20381;-80
2021/06/04 06:53:11;;;;;;;1.23;0.80;;;13.50;99.90;;;;;;5070877;28;20864;-81
2021/06/04 06:55:40;;;;;;;1.65;0.80;;;13.40;99.90;;;;;;5064893;28;20384;-81
2021/06/04 06:58:09;;;;;;;1.00;0.88;;;13.30;99.90;;;;;;5051153;28;20860;-82
2021/06/04 07:00:39;;;;;;;3.28;0.90;;;13.30;99.90;;;;;;5049550;28;20388;-81
2021/06/04 07:03:07;;;;;;;1.13;0.80;;;13.20;99.90;;;;;;5050392;28;20433;-82
2021/06/04 07:05:35;;;;;;;0.88;0.77;;;13.20;99.90;;;;;;5051247;28;20731;-81
2021/06/04 07:08:04;;;;;;;2.13;1.13;;;13.10;99.90;;;;;;5077969;28;20438;-81
2021/06/04 07:10:33;;;;;;;1.63;1.00;;;13.10;99.90;;;;;;5070730;28;20375;-81
2021/06/04 07:13:05;;;;;;;0.90;0.90;;;13.00;99.90;;;;;;5071430;28;20398;-82
2021/06/04 07:15:32;;;;;;;1.20;1.10;;;13.00;99.90;;;;;;5065583;28;20429;-81
2021/06/04 07:18:00;;;;;;;6.05;1.20;;;12.90;99.90;;;;;;5059465;28;20374;-81
2021/06/04 07:20:30;;;;;;;1.23;1.13;;;12.90;99.90;;;;;;5064733;28;20398;-81
2021/06/04 07:22:58;;;;;;;1.60;1.05;;;12.90;99.90;;;;;;5068442;28;20394;-82
2021/06/04 07:25:33;;;;;;;1.85;1.30;;;12.80;99.90;;;;;;5069883;28;20410;-82
2021/06/04 07:28:00;;;;;;;1.98;1.30;;;12.80;99.90;;;;;;5065233;28;20402;-82
2021/06/04 07:30:32;;;;;;;2.17;1.60;;;12.70;99.90;;;;;;5058752;28;20386;-81
2021/06/04 07:33:04;;;;;;;1.17;1.05;;;12.70;99.90;;;;;;5055727;28;20406;-82
2021/06/04 07:35:34;;;;;;;2.07;1.40;;;12.70;99.90;;;;;;5068957;28;20393;-81
2021/06/04 07:38:03;;;;;;;1.98;1.20;;;12.60;99.90;;;;;;5067580;28;20390;-82
2021/06/04 07:40:32;;;;;;;3.10;1.10;;;12.60;99.90;;;;;;5067611;28;20467;-82
2021/06/04 07:43:02;;;;;;;2.72;1.25;;;12.60;99.90;;;;;;5064209;28;20445;-82
2021/06/04 07:45:31;;;;;;;1.55;1.23;;;12.60;99.90;;;;;;5061613;28;20443;-82
2021/06/04 07:47:59;;;;;;;1.67;1.58;;;12.60;99.90;;;;;;5059825;28;20396;-82
2021/06/04 07:50:27;;;;;;;2.00;1.80;;;12.50;99.90;;;;;;5055703;28;20395;-82
2021/06/04 07:52:54;;;;;;;3.15;2.50;;;12.50;99.90;;;;;;5062011;28;20421;-81
2021/06/04 07:55:22;;;;;;;2.95;1.85;;;12.40;99.90;;;;;;5067456;28;20797;-81
2021/06/04 07:57:50;;;;;;;2.13;1.80;;;12.40;99.90;;;;;;5057161;28;20788;-82
2021/06/04 08:00:21;;;;;;;1.92;1.60;;;12.40;99.90;;;;;;5050131;28;20436;-82
2021/06/04 08:02:49;;;;;;;2.97;1.70;;;12.30;99.90;;;;;;5060973;28;20399;-82
2021/06/04 08:05:17;;;;;;;1.75;1.60;;;12.30;99.90;;;;;;5070288;28;20999;-82
2021/06/04 08:07:45;;;;;;;2.20;1.90;;;12.20;99.90;;;;;;5066249;28;20374;-82
2021/06/04 08:10:13;;;;;;;1.90;1.70;;;12.20;99.90;;;;;;5064942;28;20514;-82
2021/06/04 08:12:42;;;;;;;3.38;1.55;;;12.20;99.90;;;;;;5069514;28;20402;-81
2021/06/04 08:15:24;;;;;;;2.85;1.63;;;12.10;99.90;;;;;;5069851;28;20983;-82
2021/06/04 08:17:52;;;;;;;2.40;1.50;;;12.10;99.90;;;;;;5064956;28;20494;-81
2021/06/04 08:20:22;;;;;;;1.50;1.40;;;12.10;99.90;;;;;;5060315;28;20408;-80
2021/06/04 08:22:56;;;;;;;1.40;1.30;;;12.10;99.90;;;;;;5069014;28;20456;-82
2021/06/04 08:25:34;;;;;;;1.48;1.35;;;12.10;99.90;;;;;;5067685;28;20772;-81
2021/06/04 08:28:02;;;;;;;1.80;1.42;;;12.10;99.90;;;;;;5053486;28;20375;-82
2021/06/04 08:30:30;;;;;;;1.77;1.30;;;12.00;99.90;;;;;;5053236;28;20392;-82
2021/06/04 08:32:58;;;;;;;1.42;1.17;;;12.10;99.90;;;;;;5056389;28;20422;-81
2021/06/04 08:35:25;;;;;;;2.78;1.30;;;12.00;99.90;;;;;;5053019;28;20383;-80
2021/06/04 08:37:52;;;;;;;1.50;1.40;;;12.00;99.90;;;;;;5067096;28;20377;-82
2021/06/04 08:40:26;;;;;;;1.55;1.40;;;12.00;99.90;;;;;;5069440;28;20460;-81
2021/06/04 08:43:24;;;;;;;2.50;1.57;;;12.00;99.90;;;;;;5057038;28;20393;-81
2021/06/04 08:46:26;;;;;;;2.63;1.50;;;12.00;99.90;;;;;;5062679;28;20386;-81
2021/06/04 08:48:57;;;;;;;1.58;1.48;;;11.90;99.90;;;;;;5066240;28;20393;-82
2021/06/04 08:51:36;;;;;;;1.80;1.43;;;11.90;99.90;;;;;;5069111;28;20421;-81
2021/06/04 08:54:21;;;;;;;4.45;1.92;;;11.90;99.90;;;;;;5066230;28;20475;-82
2021/06/04 08:57:19;;;;;;;3.22;2.40;;;11.80;99.90;;;;;;5064108;28;20881;-82
2021/06/04 08:59:48;;;;;;;3.22;2.10;;;11.80;99.90;;;;;;5069019;28;20370;-81
2021/06/04 09:02:22;;;;;;;2.10;1.90;;;11.70;99.90;;;;;;5066932;28;20397;-81
2021/06/04 09:04:58;;;;;;;4.63;2.00;;;11.70;99.90;;;;;;5059449;28;20394;-81
2021/06/04 09:07:30;;;;;;;2.70;2.05;;;11.70;99.90;;;;;;5055490;28;20383;-81
2021/06/04 09:10:12;;;;;;;3.45;2.10;;;11.60;99.90;;;;;;5052704;28;20403;-81
2021/06/04 09:12:42;;;;;;;2.95;2.10;;;11.60;99.90;;;;;;5068110;28;20509;-81
2021/06/04 09:15:11;;;;;;;4.53;2.00;;;11.50;99.90;;;;;;5062495;28;20475;-82
2021/06/04 09:18:02;;;;;;;4.10;2.17;;;11.50;99.90;;;;;;5051170;28;20370;-81
2021/06/04 09:20:44;;;;;;;2.90;2.00;;;11.60;99.90;;;;;;5065097;28;20444;-81
2021/06/04 09:23:15;;;;;;;3.92;1.90;;;11.60;99.90;;;;;;5069050;28;20733;-81
2021/06/04 09:25:43;;;;;;;2.60;1.60;;;11.50;99.90;;;;;;5068171;28;20378;-81
2021/06/04 09:28:12;;;;;;;4.18;1.40;;;11.50;99.90;;;;;;5068538;28;20539;-83
2021/06/04 09:30:45;;;;;;;2.38;1.48;;;11.50;99.90;;;;;;5068979;28;20450;-82
2021/06/04 09:33:18;;;;;;;3.47;1.70;;;11.50;99.90;;;;;;5063525;28;20499;-82
2021/06/04 09:36:09;;;;;;;3.50;1.75;;;11.50;99.90;;;;;;5049337;28;21941;-82
2021/06/04 09:38:48;;;;;;;3.00;1.80;;;11.40;99.90;;;;;;5054687;28;20738;-83
2021/06/04 09:41:24;;;;;;;2.10;1.40;;;11.40;99.90;;;;;;5047206;28;20461;-83
2021/06/04 09:44:17;;;;;;;2.10;1.10;;;11.40;99.90;;;;;;5051243;28;20446;-83
2021/06/04 09:47:03;;;;;;;2.47;1.30;;;11.40;99.90;;;;;;5061913;28;20386;-83
2021/06/04 09:49:32;;;;;;;2.60;1.20;;;11.50;99.90;;;;;;5064390;28;20402;-84
2021/06/04 09:52:36;;;;;;;2.70;1.30;;;11.50;99.90;;;;;;5067916;28;20393;-84
2021/06/04 09:55:15;;;;;;;2.10;1.38;;;11.60;99.90;;;;;;5050418;28;20989;-83
2021/06/04 09:58:06;;;;;;;2.03;1.50;;;11.60;99.90;;;;;;5059071;28;21040;-83
2021/06/04 10:00:38;;;;;;;1.75;1.48;;;11.70;99.90;;;;;;5069063;28;20389;-83
2021/06/04 10:03:22;;;;;;;1.50;1.40;;;11.80;99.90;;;;;;5071064;28;20378;-84
2021/06/04 10:05:54;;;;;;;1.92;1.75;;;11.90;99.90;;;;;;5070656;28;20397;-84
2021/06/04 10:08:27;;;;;;;2.05;1.65;;;11.90;99.90;;;;;;5063287;28;20411;-84
2021/06/04 10:11:21;;;;;;;3.80;1.67;;;11.90;99.90;;;;;;5061079;28;20505;-84
2021/06/04 10:13:54;;;;;;;3.30;2.10;;;11.90;99.90;;;;;;5067499;28;20433;-84
2021/06/04 10:19:34;;;;;;;2.25;1.73;;;12.00;99.90;;;;;;5054728;28;20394;-84
2021/06/04 10:22:22;;;;;;;3.65;1.80;;;12.10;99.90;;;;;;5064714;28;20775;-84
2021/06/04 10:25:14;;;;;;;2.80;1.77;;;12.20;99.90;;;;;;5066513;28;20389;-84
2021/06/04 10:27:48;;;;;;;3.45;2.47;;;12.20;99.90;;;;;;5065085;28;20478;-84
2021/06/04 10:30:23;;;;;;;3.20;2.10;;;12.10;99.90;;;;;;5050154;28;20372;-84
2021/06/04 10:33:04;;;;;;;2.22;2.00;;;12.10;99.90;;;;;;5054273;28;20976;-84
2021/06/04 10:35:56;;;;;;;2.45;2.22;;;12.00;99.90;;;;;;5069441;28;20366;-83
2021/06/04 10:38:36;;;;;;;2.92;2.38;;;11.90;99.90;;;;;;5066467;28;20394;-85
2021/06/04 10:41:10;;;;;;;3.42;2.47;;;11.90;99.90;;;;;;5066505;28;20397;-84
2021/06/04 10:44:14;;;;;;;3.33;2.20;;;11.90;99.90;;;;;;5070446;28;20394;-84
2021/06/04 10:47:22;;;;;;;2.20;1.95;;;11.80;99.90;;;;;;5068222;28;20394;-85
2021/06/04 10:50:10;;;;;;;2.60;1.70;;;11.70;99.90;;;;;;5008646;28;20403;-83
2021/06/04 10:52:46;;;;;;;2.30;1.92;;;11.60;99.90;;;;;;5065706;28;20500;-84
2021/06/04 10:55:25;;;;;;;4.20;1.80;;;11.60;99.90;;;;;;5067605;28;20398;-84
2021/06/04 10:58:06;;;;;;;3.00;2.40;;;11.50;99.90;;;;;;5066702;28;20882;-82
2021/06/04 11:00:47;;;;;;;4.00;2.60;;;11.50;99.90;;;;;;5064068;28;21437;-83
2021/06/04 11:03:22;;;;;;;3.45;2.30;;;11.50;99.90;;;;;;5061855;28;20403;-83
2021/06/04 11:06:18;;;;;;;2.40;2.10;;;11.50;99.90;;;;;;5061032;28;20482;-82
2021/06/04 11:08:54;;;;;;;2.67;2.13;;;11.50;99.90;;;;;;5065440;28;20480;-82
2021/06/04 11:11:24;;;;;;;4.43;2.40;;;11.40;99.90;;;;;;5066440;28;20386;-83
2021/06/04 11:14:01;;;;;;;2.80;2.30;;;11.40;99.90;;;;;;5064243;28;20448;-82
2021/06/04 11:16:46;;;;;;;2.92;2.30;;;11.30;99.90;;;;;;5065713;28;20388;-82
2021/06/04 11:19:37;;;;;;;3.15;2.40;;;11.30;99.90;;;;;;5053232;28;20870;-83
2021/06/04 11:22:11;;;;;;;2.63;2.42;;;11.30;99.90;;;;;;5056322;28;20401;-83
2021/06/04 11:24:51;;;;;;;4.28;2.42;;;11.20;99.90;;;;;;5060911;28;20381;-82
2021/06/04 11:27:40;;;;;;;3.05;2.40;;;11.20;99.90;;;;;;5064706;28;20395;-83
2021/06/04 11:30:26;;;;;;;4.18;2.50;;;11.20;99.90;;;;;;5065236;28;20417;-81
2021/06/04 11:33:20;;;;;;;5.97;2.22;;;11.30;99.90;;;;;;5060587;28;21115;-82
2021/06/04 11:35:54;;;;;;;4.75;2.47;;;11.40;99.90;;;;;;5062811;28;20411;-82
2021/06/04 11:38:32;;;;;;;4.00;2.35;;;11.50;99.90;;;;;;5064962;28;20403;-82
2021/06/04 11:41:10;;;;;;;3.70;2.47;;;11.50;99.90;;;;;;5068099;28;20789;-83
2021/06/04 11:43:40;;;;;;;6.88;2.58;;;11.60;99.90;;;;;;5051843;28;20726;-83
2021/06/04 11:46:16;;;;;;;7.85;2.50;;;11.60;99.90;;;;;;5055181;28;20378;-83
2021/06/04 11:49:05;;;;;;;5.68;2.45;;;11.60;99.90;;;;;;5063828;28;20399;-83
2021/06/04 11:51:39;;;;;;;3.30;2.08;;;11.60;99.90;;;;;;5065247;28;20388;-82
2021/06/04 11:54:27;;;;;;;2.53;1.80;;;11.70;99.90;;;;;;5050250;28;20395;-84
2021/06/04 11:56:57;;;;;;;5.90;2.10;;;11.70;99.90;;;;;;5050373;28;20475;-83
2021/06/04 12:00:19;;;;;;;2.85;2.20;;;11.80;99.90;;;;;;5056803;28;20810;-85
2021/06/04 12:03:07;;;;;;;4.82;2.10;;;11.90;99.90;;;;;;4995093;28;20391;-83
2021/06/04 12:05:49;;;;;;;2.92;2.00;;;11.90;99.90;;;;;;5055236;28;20411;-83
2021/06/04 12:08:23;;;;;;;3.33;1.98;;;11.90;99.90;;;;;;5058102;28;20392;-84
2021/06/04 12:10:49;;;;;;;3.20;2.28;;;11.90;99.90;;;;;;5063217;28;20398;-83
2021/06/04 12:13:43;;;;;;;2.50;2.00;;;11.90;99.90;;;;;;5068557;28;20416;-85
2021/06/04 12:16:26;;;;;;;2.47;1.30;;;11.90;99.90;;;;;;5062859;28;20432;-83
2021/06/04 12:18:57;;;;;;;1.38;1.20;;;12.00;99.90;;;;;;5056668;28;20947;-83
2021/06/04 12:21:45;;;;;;;2.78;1.70;;;12.00;99.90;;;;;;5060555;28;20925;-84
2021/06/04 12:24:18;;;;;;;3.08;1.27;;;12.00;99.90;;;;;;5065004;28;20869;-83
2021/06/04 12:26:54;;;;;;;1.73;1.50;;;12.00;99.90;;;;;;5053078;28;20874;-83
2021/06/04 12:29:24;;;;;;;1.20;1.00;;;12.10;99.90;;;;;;5055468;28;20440;-83
2021/06/04 12:31:59;;;;;;;1.87;1.20;;;12.10;99.90;;;;;;5069328;28;20369;-83
2021/06/04 12:34:41;;;;;;;3.28;1.33;;;12.00;99.90;;;;;;5063406;28;20445;-83
2021/06/04 12:37:25;;;;;;;1.60;1.13;;;12.00;99.90;;;;;;5062201;28;20389;-82
2021/06/04 12:40:01;;;;;;;1.50;0.90;;;11.90;99.90;;;;;;5057199;28;21024;-83
2021/06/04 12:42:48;;;;;;;1.83;1.00;;;12.00;99.90;;;;;;5060907;28;20398;-83
2021/06/04 12:45:35;;;;;;;1.90;1.00;;;12.00;99.90;;;;;;5068925;28;20871;-84
2021/06/04 12:48:28;;;;;;;1.40;1.00;;;12.00;99.90;;;;;;5064978;28;20471;-83
2021/06/04 12:50:58;;;;;;;2.00;1.00;;;11.90;99.90;;;;;;5054433;28;20881;-83
2021/06/04 12:53:37;;;;;;;1.67;0.95;;;11.90;99.90;;;;;;5053700;28;20884;-83
2021/06/04 12:56:04;;;;;;;2.20;1.25;;;11.90;99.90;;;;;;5060440;28;20409;-82
2021/06/04 12:58:46;;;;;;;1.33;1.05;;;11.90;99.90;;;;;;5067133;28;20436;-83
2021/06/04 13:01:21;;;;;;;2.45;1.10;;;11.90;99.90;;;;;;5062678;28;20902;-82
2021/06/04 13:03:52;;;;;;;1.85;1.23;;;11.80;99.90;;;;;;5063824;28;20934;-82
2021/06/04 13:06:38;;;;;;;0.98;0.90;;;11.80;99.90;;;;;;5067380;28;20805;-82
2021/06/04 13:09:07;;;;;;;1.53;1.10;;;11.70;99.90;;;;;;5067385;28;20394;-82
2021/06/04 13:11:38;;;;;;;0.77;0.70;;;11.70;99.90;;;;;;5067837;28;20398;-81
2021/06/04 13:14:34;;;;;;;2.83;0.83;;;11.60;99.90;;;;;;5066605;28;20897;-82
2021/06/04 13:17:20;;;;;;;1.10;0.70;;;11.50;99.90;;;;;;5065642;28;20402;-83
2021/06/04 13:19:49;;;;;;;0.88;0.60;;;11.30;99.90;;;;;;5056122;28;20424;-83
2021/06/04 13:22:25;;;;;;;1.95;0.80;;;11.30;99.90;;;;;;5063617;28;20624;-82
2021/06/04 13:24:57;;;;;;;2.10;1.00;;;11.30;99.90;;;;;;5065232;28;20394;-81
2021/06/04 13:27:27;;;;;;;2.20;1.10;;;11.30;99.90;;;;;;5062853;28;20915;-83
2021/06/04 13:30:02;;;;;;;1.85;1.00;;;11.30;99.90;;;;;;5055895;28;20924;-83